Time;durP1;ratioP1;P1;durP2;ratioP2;P2;SDS_P1;SDS_P2;PMS_P1;PMS_P2;Temp;Humidity;BMP_temperature;BMP_pressure;BME280_temperature;BME280_humidity;BME280_pressure;Samples;Min_cycle;Max_cycle;Signal;HPM_P1;HPM_P2
2023/06/03 00:00:03;;;;;;;2.47;0.47;;;;;;;;;;5007498;28;20041;-85
2023/06/03 00:02:29;;;;;;;1.48;0.40;;;11.70;85.10;;;;;;5007616;28;20447;-84
2023/06/03 00:04:56;;;;;;;5.80;0.70;;;8.70;88.60;;;;;;4988258;28;20046;-85
2023/06/03 00:10:17;;;;;;;2.05;0.63;;;;;;;;;;4994062;28;20105;-85
2023/06/03 00:12:48;;;;;;;1.70;0.60;;;8.50;89.40;;;;;;5019564;28;20045;-86
2023/06/03 00:15:14;;;;;;;1.60;0.60;;;8.30;86.40;;;;;;4999453;28;20069;-85
2023/06/03 00:17:40;;;;;;;3.50;0.80;;;8.40;85.00;;;;;;4999397;28;20065;-86
2023/06/03 00:20:06;;;;;;;4.25;1.52;;;8.10;84.80;;;;;;4984938;28;20041;-86
2023/06/03 00:22:39;;;;;;;4.47;0.70;;;11.10;86.50;;;;;;5002684;28;20056;-86
2023/06/03 00:25:11;;;;;;;2.60;0.47;;;8.20;85.10;;;;;;4980337;28;20038;-86
2023/06/03 00:27:40;;;;;;;;;;;8.20;85.50;;;;;;4988510;28;20407;-86
2023/06/03 00:30:07;;;;;;;2.30;1.00;;;8.10;85.00;;;;;;5002841;28;19925;-85
2023/06/03 00:32:34;;;;;;;2.80;0.60;;;8.00;89.70;;;;;;5004304;28;20481;-85
2023/06/03 00:35:00;;;;;;;1.75;0.60;;;8.00;84.80;;;;;;4996115;28;20049;-85
2023/06/03 00:37:26;;;;;;;1.73;0.40;;;7.90;90.30;;;;;;4991179;28;20431;-84
2023/06/03 00:39:52;;;;;;;1.40;0.50;;;7.90;90.20;;;;;;4985185;28;20422;-85
2023/06/03 00:42:18;;;;;;;2.90;0.75;;;7.90;85.80;;;;;;5000650;28;20045;-86
2023/06/03 00:44:46;;;;;;;2.03;0.60;;;7.80;86.60;;;;;;4983069;28;20038;-85
2023/06/03 00:47:15;;;;;;;1.95;0.32;;;8.40;87.60;;;;;;4999979;28;20042;-85
2023/06/03 00:49:41;;;;;;;1.88;0.47;;;7.90;90.00;;;;;;4984549;28;20045;-85
2023/06/03 00:52:07;;;;;;;3.72;0.85;;;8.20;88.20;;;;;;4983638;28;20042;-86
2023/06/03 00:54:36;;;;;;;3.70;0.60;;;;;;;;;;4982786;28;20044;-85
2023/06/03 00:57:03;;;;;;;1.33;0.40;;;7.80;84.70;;;;;;5000867;28;20057;-86
2023/06/03 00:59:29;;;;;;;3.97;0.65;;;7.80;85.40;;;;;;4985168;28;20046;-86
2023/06/03 01:01:55;;;;;;;5.22;1.08;;;7.70;87.10;;;;;;5001932;28;20320;-85
2023/06/03 01:04:25;;;;;;;6.40;0.90;;;7.70;85.80;;;;;;5003525;28;20044;-86
2023/06/03 01:06:54;;;;;;;2.75;0.30;;;7.70;86.20;;;;;;4988866;28;20034;-85
2023/06/03 01:28:35;;;;;;;2.42;0.43;;;7.60;90.50;;;;;;4916417;29;20048;-88
2023/06/03 01:31:03;;;;;;;1.73;0.45;;;7.40;90.50;;;;;;4882197;29;20403;-88
2023/06/03 01:33:29;;;;;;;2.15;0.50;;;;;;;;;;4908298;29;20484;-88
2023/06/03 01:36:05;;;;;;;5.32;0.68;;;7.40;85.20;;;;;;4925078;28;20051;-90
2023/06/03 01:38:32;;;;;;;5.72;0.50;;;7.60;90.60;;;;;;4941952;28;20042;-89
2023/06/03 01:40:59;;;;;;;1.90;0.38;;;7.80;87.90;;;;;;4947716;28;20047;-90
2023/06/03 01:43:25;;;;;;;1.75;0.30;;;7.50;90.60;;;;;;4947648;28;20607;-88
2023/06/03 01:45:51;;;;;;;1.50;0.68;;;7.40;85.90;;;;;;4943432;28;20077;-89
2023/06/03 01:48:17;;;;;;;1.60;0.40;;;7.50;91.00;;;;;;4933228;28;20157;-88
2023/06/03 01:50:46;;;;;;;1.65;0.35;;;7.40;86.30;;;;;;4929401;28;20047;-89
2023/06/03 01:53:18;;;;;;;1.48;0.32;;;7.40;86.10;;;;;;4930918;28;20197;-89
2023/06/03 01:55:46;;;;;;;1.42;0.25;;;7.30;91.00;;;;;;4935521;28;20039;-89
2023/06/03 01:58:12;;;;;;;2.60;0.30;;;;;;;;;;4949330;28;20054;-89
2023/06/03 02:00:38;;;;;;;2.15;0.93;;;;;;;;;;4993907;28;20134;-90
2023/06/03 02:03:07;;;;;;;1.45;0.30;;;7.40;91.20;;;;;;4978414;28;20038;-89
2023/06/03 02:05:33;;;;;;;2.95;0.40;;;;;;;;;;4977535;28;20687;-88
2023/06/03 02:07:59;;;;;;;2.08;0.63;;;7.30;86.00;;;;;;4997516;28;20431;-89
2023/06/03 02:10:25;;;;;;;2.22;0.45;;;;;;;;;;4980448;28;20100;-89
2023/06/03 02:12:54;;;;;;;2.88;0.40;;;7.30;91.60;;;;;;4997101;28;20046;-91
2023/06/03 02:15:20;;;;;;;1.58;0.40;;;7.60;91.90;;;;;;4990728;28;20041;-88
2023/06/03 02:17:46;;;;;;;3.33;0.40;;;;;;;;;;4981467;28;20038;-88
2023/06/03 02:20:12;;;;;;;1.40;0.38;;;;;;;;;;4990360;28;20099;-88
2023/06/03 02:22:38;;;;;;;1.77;0.50;;;;;;;;;;4980673;28;20041;-89
2023/06/03 02:25:08;;;;;;;2.45;0.50;;;9.00;89.70;;;;;;4980339;28;20074;-87
2023/06/03 02:27:43;;;;;;;2.13;0.60;;;6.60;88.60;;;;;;4976327;28;20041;-88
2023/06/03 02:30:10;;;;;;;5.32;0.40;;;;;;;;;;4996598;28;20113;-88
2023/06/03 02:32:49;;;;;;;1.17;0.40;;;6.60;89.40;;;;;;4994518;28;20069;-86
2023/06/03 02:35:16;;;;;;;2.88;0.70;;;;;;;;;;4988906;28;20179;-86
2023/06/03 02:37:42;;;;;;;2.13;0.52;;;;;;;;;;4993832;28;20141;-86
2023/06/03 02:40:14;;;;;;;2.22;0.55;;;;;;;;;;4978908;28;20042;-86
2023/06/03 02:42:43;;;;;;;2.13;0.38;;;6.30;90.50;;;;;;4980869;28;20046;-85
2023/06/03 02:45:09;;;;;;;1.90;0.50;;;;;;;;;;4985002;28;20046;-86
2023/06/03 02:47:35;;;;;;;2.95;0.70;;;;;;;;;;4978956;28;20530;-86
2023/06/03 02:50:02;;;;;;;3.55;0.43;;;;;;;;;;4979674;28;20455;-86
2023/06/03 02:52:34;;;;;;;1.23;0.50;;;6.00;91.40;;;;;;4975972;28;20042;-86
2023/06/03 02:55:07;;;;;;;3.17;0.63;;;5.90;91.50;;;;;;4979384;28;20049;-86
2023/06/03 02:57:36;;;;;;;3.70;0.47;;;;;;;;;;4996327;28;20044;-86
2023/06/03 03:00:09;;;;;;;2.17;0.70;;;;;;;;;;4995867;28;20108;-85
2023/06/03 03:02:37;;;;;;;1.42;0.63;;;;;;;;;;4972916;28;20072;-85
2023/06/03 03:05:04;;;;;;;3.13;0.50;;;;;;;;;;4995513;28;20048;-86
2023/06/03 03:07:32;;;;;;;3.20;0.75;;;;;;;;;;4994948;28;20129;-86
2023/06/03 03:10:05;;;;;;;2.25;0.50;;;5.70;92.50;;;;;;4995036;28;20085;-86
2023/06/03 03:12:33;;;;;;;;;;;5.60;94.70;;;;;;4978060;28;20923;-86
2023/06/03 03:15:01;;;;;;;1.85;0.88;;;;;;;;;;4993450;28;19917;-85
2023/06/03 03:17:27;;;;;;;1.80;0.70;;;;;;;;;;5010929;28;20068;-85
2023/06/03 03:19:57;;;;;;;2.75;0.95;;;5.50;92.80;;;;;;4978779;28;20121;-85
2023/06/03 03:22:25;;;;;;;3.30;0.73;;;;;;;;;;4977968;28;20042;-86
2023/06/03 03:24:52;;;;;;;2.38;1.00;;;;;;;;;;4978644;28;20138;-85
2023/06/03 03:27:20;;;;;;;5.28;1.15;;;5.60;96.30;;;;;;4994157;28;20067;-86
2023/06/03 03:29:51;;;;;;;2.33;0.75;;;5.60;93.30;;;;;;4987759;28;20103;-88
2023/06/03 03:32:19;;;;;;;2.75;1.00;;;;;;;;;;4987066;28;20041;-88
2023/06/03 03:34:54;;;;;;;5.32;1.80;;;5.70;93.10;;;;;;4992122;28;20041;-85
2023/06/03 03:37:20;;;;;;;4.57;0.65;;;6.00;96.60;;;;;;4976332;28;20548;-85
2023/06/03 03:39:46;;;;;;;2.63;1.13;;;5.80;96.40;;;;;;4977707;28;20041;-85
2023/06/03 03:42:19;;;;;;;3.70;1.33;;;9.10;95.00;;;;;;4988430;28;20042;-85
2023/06/03 03:44:45;;;;;;;3.80;0.80;;;;;;;;;;4979632;28;20121;-86
2023/06/03 03:47:20;;;;;;;3.67;1.02;;;5.90;93.20;;;;;;4989741;28;20053;-86
2023/06/03 03:49:46;;;;;;;5.43;0.75;;;;;;;;;;4989531;28;20125;-87
2023/06/03 03:52:15;;;;;;;3.83;0.90;;;5.90;93.20;;;;;;4994781;28;20089;-88
2023/06/03 03:54:42;;;;;;;2.67;1.10;;;;;;;;;;4985209;28;20503;-90
2023/06/03 03:57:16;;;;;;;4.55;0.93;;;6.00;93.20;;;;;;4980890;28;20097;-89
2023/06/03 03:59:42;;;;;;;4.97;0.88;;;;;;;;;;4981095;28;20048;-89
2023/06/03 04:02:08;;;;;;;2.38;0.93;;;;;;;;;;4994541;28;20037;-87
2023/06/03 04:04:44;;;;;;;4.05;1.35;;;6.20;96.40;;;;;;4997158;28;20946;-87
2023/06/03 04:07:14;;;;;;;1.90;0.73;;;6.30;93.40;;;;;;4994389;28;20038;-85
2023/06/03 04:09:43;;;;;;;2.50;0.70;;;6.30;93.20;;;;;;4984102;28;20030;-86
2023/06/03 04:12:32;;;;;;;5.38;1.23;;;6.40;93.00;;;;;;4975698;28;20145;-85
2023/06/03 04:15:02;;;;;;;4.38;1.10;;;6.70;93.30;;;;;;4975918;28;20368;-86
2023/06/03 04:17:30;;;;;;;3.60;0.85;;;6.70;96.00;;;;;;4991169;28;20128;-86
2023/06/03 04:19:58;;;;;;;6.03;1.10;;;7.10;93.10;;;;;;4976967;28;20133;-85
2023/06/03 04:22:25;;;;;;;2.38;1.00;;;7.80;96.00;;;;;;4976422;28;20121;-86
2023/06/03 04:25:04;;;;;;;2.33;1.00;;;8.20;95.40;;;;;;4976962;28;20038;-84
2023/06/03 04:27:30;;;;;;;2.22;0.65;;;;;;;;;;4973985;28;20042;-85
2023/06/03 04:29:56;;;;;;;2.95;0.60;;;9.10;91.80;;;;;;4983188;28;20361;-86
2023/06/03 04:32:23;;;;;;;2.95;0.80;;;;;;;;;;4976642;28;20180;-85
2023/06/03 04:34:53;;;;;;;3.17;0.75;;;10.40;92.30;;;;;;4992043;28;20269;-85
2023/06/03 04:37:20;;;;;;;3.22;0.47;;;10.30;90.00;;;;;;4976780;28;20141;-85
2023/06/03 04:39:48;;;;;;;1.98;0.90;;;10.50;89.60;;;;;;4980356;28;20050;-86
2023/06/03 04:42:15;;;;;;;4.22;0.93;;;7.90;87.40;;;;;;4976357;28;20418;-85
2023/06/03 04:44:42;;;;;;;2.38;0.70;;;10.70;87.60;;;;;;4976485;28;20507;-85
2023/06/03 04:47:12;;;;;;;1.27;0.50;;;10.70;89.00;;;;;;4980443;28;20033;-86
2023/06/03 04:49:38;;;;;;;2.88;0.60;;;10.70;87.60;;;;;;4974223;28;20046;-85
2023/06/03 04:52:09;;;;;;;2.38;0.80;;;10.60;91.00;;;;;;4994898;28;20538;-85
2023/06/03 04:54:36;;;;;;;4.30;1.00;;;10.40;87.90;;;;;;4981700;28;20030;-83
2023/06/03 04:57:02;;;;;;;4.07;0.95;;;8.50;86.50;;;;;;4975211;28;20533;-84
2023/06/03 04:59:28;;;;;;;2.10;0.88;;;;;;;;;;4989247;28;20120;-85
2023/06/03 05:01:54;;;;;;;2.28;0.90;;;10.80;86.60;;;;;;4985376;28;20042;-85
2023/06/03 05:04:20;;;;;;;2.95;0.60;;;11.40;90.80;;;;;;4980983;28;20050;-86
2023/06/03 05:06:46;;;;;;;3.92;0.80;;;11.40;86.80;;;;;;5007484;28;20556;-85
2023/06/03 05:09:13;;;;;;;2.42;0.75;;;11.40;86.10;;;;;;4984962;28;20228;-85
2023/06/03 05:11:43;;;;;;;4.65;0.70;;;11.80;89.70;;;;;;4999905;28;20068;-86
2023/06/03 05:14:10;;;;;;;2.88;0.90;;;;;;;;;;4983335;28;20048;-87
2023/06/03 05:16:36;;;;;;;4.05;1.13;;;11.90;83.80;;;;;;5000173;28;20952;-89
2023/06/03 05:19:06;;;;;;;4.85;0.70;;;;;;;;;;4985060;28;20033;-88
2023/06/03 05:21:32;;;;;;;1.73;0.80;;;;;;;;;;4987239;28;20042;-86
2023/06/03 05:23:59;;;;;;;2.63;1.50;;;12.10;82.40;;;;;;4996752;28;20070;-85
2023/06/03 05:26:24;;;;;;;2.53;0.65;;;10.50;82.00;;;;;;4995203;28;20471;-88
2023/06/03 05:28:50;;;;;;;3.00;0.52;;;12.30;82.70;;;;;;4983383;28;20529;-87
2023/06/03 05:31:20;;;;;;;2.42;0.63;;;12.40;82.20;;;;;;4983029;28;20088;-86
2023/06/03 05:33:46;;;;;;;3.83;0.68;;;11.60;83.00;;;;;;4984338;28;20686;-85
2023/06/03 05:36:22;;;;;;;3.15;0.63;;;13.30;83.00;;;;;;4982374;28;20030;-86
2023/06/03 05:38:48;;;;;;;4.05;0.60;;;14.80;79.70;;;;;;4997360;28;20411;-85
2023/06/03 05:41:22;;;;;;;3.85;0.57;;;15.70;78.50;;;;;;4994226;28;20384;-85
2023/06/03 05:43:51;;;;;;;2.53;0.65;;;15.10;79.80;;;;;;4985840;28;20041;-86
2023/06/03 05:46:17;;;;;;;2.60;0.40;;;15.80;79.60;;;;;;5000664;28;20056;-85
2023/06/03 05:48:44;;;;;;;5.25;1.30;;;15.30;75.20;;;;;;4989587;28;20061;-85
2023/06/03 05:51:12;;;;;;;2.40;0.45;;;14.10;71.30;;;;;;5007144;28;20073;-84
2023/06/03 05:53:43;;;;;;;1.73;0.60;;;19.30;70.50;;;;;;4980880;28;20060;-87
2023/06/03 05:56:10;;;;;;;4.25;0.52;;;20.50;64.40;;;;;;4999118;28;20073;-87
2023/06/03 05:58:38;;;;;;;3.55;0.68;;;24.30;63.90;;;;;;4983236;28;20073;-86
2023/06/03 06:01:10;;;;;;;3.60;0.40;;;21.00;61.30;;;;;;4981008;28;20038;-87
2023/06/03 06:03:45;;;;;;;4.07;0.93;;;21.90;60.90;;;;;;4984442;28;20042;-91
2023/06/03 06:06:11;;;;;;;4.32;0.50;;;19.40;60.00;;;;;;4985911;28;20141;-92
2023/06/03 06:08:40;;;;;;;2.13;0.55;;;18.30;60.80;;;;;;4992214;28;20336;-91
2023/06/03 06:11:09;;;;;;;2.25;0.43;;;20.90;61.40;;;;;;5003394;28;20046;-89
2023/06/03 06:13:35;;;;;;;3.78;0.55;;;20.30;59.50;;;;;;5002501;28;20241;-90
2023/06/03 06:16:05;;;;;;;1.45;0.30;;;20.00;58.80;;;;;;4984633;28;20033;-86
2023/06/03 06:18:40;;;;;;;2.70;0.30;;;19.80;57.60;;;;;;4983045;28;20038;-87
2023/06/03 06:21:09;;;;;;;4.18;0.80;;;20.20;62.70;;;;;;4987122;28;20502;-87
2023/06/03 06:23:35;;;;;;;1.80;0.30;;;20.70;57.90;;;;;;4980184;28;20128;-88
2023/06/03 06:26:01;;;;;;;1.63;0.30;;;20.00;57.40;;;;;;4978547;28;20136;-88
2023/06/03 06:28:28;;;;;;;3.78;0.35;;;20.30;58.90;;;;;;4987463;28;20092;-88
2023/06/03 06:30:56;;;;;;;2.83;0.30;;;20.40;54.40;;;;;;4979936;28;20042;-86
2023/06/03 06:33:30;;;;;;;2.13;0.25;;;21.30;54.20;;;;;;4998475;28;20046;-87
2023/06/03 06:35:56;;;;;;;4.45;0.30;;;22.60;53.90;;;;;;5002545;28;20034;-86
2023/06/03 06:38:22;;;;;;;2.40;0.30;;;22.70;54.00;;;;;;4992446;28;20733;-86
2023/06/03 06:40:50;;;;;;;2.35;0.30;;;23.90;53.50;;;;;;4986972;28;20050;-87
2023/06/03 06:43:25;;;;;;;2.38;0.40;;;24.00;50.20;;;;;;4991118;28;20530;-87
2023/06/03 06:46:15;;;;;;;1.38;0.30;;;24.50;52.10;;;;;;5000517;28;20073;-87
2023/06/03 06:48:40;;;;;;;1.67;0.43;;;25.20;50.50;;;;;;4978083;28;20436;-87
2023/06/03 06:51:06;;;;;;;1.27;0.40;;;25.70;47.00;;;;;;4975385;28;20504;-88
2023/06/03 06:53:49;;;;;;;3.28;0.30;;;26.60;46.40;;;;;;5003560;28;20468;-87
2023/06/03 06:56:17;;;;;;;2.67;0.32;;;25.90;44.40;;;;;;4997562;28;20094;-86
2023/06/03 06:58:43;;;;;;;2.40;0.20;;;24.80;45.30;;;;;;4994337;28;20616;-89
2023/06/03 07:01:09;;;;;;;2.17;0.20;;;24.90;49.00;;;;;;4978110;28;20067;-86
2023/06/03 07:03:36;;;;;;;5.72;0.65;;;23.60;49.70;;;;;;4994818;28;20132;-89
2023/06/03 07:06:05;;;;;;;2.38;0.40;;;24.60;50.10;;;;;;4983701;28;20048;-88
2023/06/03 07:08:31;;;;;;;1.10;0.20;;;23.90;46.10;;;;;;4993695;28;20058;-87
2023/06/03 07:11:00;;;;;;;2.83;0.20;;;24.90;48.50;;;;;;4977628;28;20121;-89
2023/06/03 07:13:29;;;;;;;2.17;0.30;;;27.10;46.80;;;;;;4984436;28;20041;-86
2023/06/03 07:16:08;;;;;;;5.97;0.43;;;27.50;42.90;;;;;;4977108;28;20359;-86
2023/06/03 07:18:38;;;;;;;1.95;0.50;;;25.30;41.20;;;;;;4977731;28;20033;-89
2023/06/03 07:21:03;;;;;;;1.95;0.40;;;29.90;41.60;;;;;;5009102;28;20439;-88
2023/06/03 07:23:30;;;;;;;0.98;0.20;;;30.90;40.00;;;;;;4980167;28;20031;-88
2023/06/03 07:26:02;;;;;;;2.97;0.30;;;31.40;38.50;;;;;;4977101;28;20046;-89
2023/06/03 07:28:34;;;;;;;1.05;0.20;;;29.70;35.70;;;;;;4978886;28;20037;-87
2023/06/03 07:31:10;;;;;;;2.50;0.20;;;30.30;36.70;;;;;;4979786;28;20875;-89
2023/06/03 07:33:59;;;;;;;4.32;0.98;;;32.40;38.00;;;;;;4976897;28;20065;-88
2023/06/03 07:36:28;;;;;;;2.25;0.25;;;32.50;36.10;;;;;;4976145;28;20042;-89
2023/06/03 07:39:17;;;;;;;1.00;0.20;;;31.70;36.20;;;;;;4990570;28;20073;-88
2023/06/03 07:41:53;;;;;;;1.88;0.20;;;33.50;34.60;;;;;;4993570;28;20042;-87
2023/06/03 07:45:02;;;;;;;2.78;0.20;;;33.50;33.40;;;;;;4977249;28;20071;-88
2023/06/03 07:47:27;;;;;;;1.45;0.20;;;31.80;31.60;;;;;;4989371;28;20042;-87
2023/06/03 07:49:55;;;;;;;1.75;0.30;;;33.70;35.30;;;;;;4977676;28;20096;-89
2023/06/03 07:52:25;;;;;;;0.90;0.20;;;32.90;33.90;;;;;;4978252;28;20084;-89
2023/06/03 07:54:53;;;;;;;1.10;0.20;;;34.50;35.90;;;;;;4989805;28;20069;-87
2023/06/03 07:57:19;;;;;;;1.73;0.30;;;34.40;35.00;;;;;;4999101;28;20188;-89
2023/06/03 07:59:55;;;;;;;2.10;0.20;;;33.80;34.10;;;;;;4976084;28;20662;-88
2023/06/03 08:02:36;;;;;;;2.67;0.15;;;34.20;34.50;;;;;;4991972;28;20056;-87
2023/06/03 08:05:17;;;;;;;2.90;0.30;;;34.30;33.60;;;;;;4977068;28;20064;-87
2023/06/03 08:07:45;;;;;;;3.43;0.20;;;34.40;33.70;;;;;;4992750;28;20490;-88
2023/06/03 08:10:27;;;;;;;1.15;0.20;;;34.70;34.90;;;;;;4976778;28;20786;-87
2023/06/03 08:12:53;;;;;;;1.02;0.20;;;35.10;33.30;;;;;;4973821;28;20046;-90
2023/06/03 08:15:35;;;;;;;2.67;0.32;;;34.80;35.30;;;;;;4989420;28;20049;-93
2023/06/03 08:18:06;;;;;;;1.65;0.17;;;34.90;32.10;;;;;;4975810;28;20057;-87
2023/06/03 08:20:35;;;;;;;0.95;0.10;;;34.90;32.70;;;;;;5015261;28;20157;-89
2023/06/03 08:23:06;;;;;;;1.65;0.10;;;34.20;31.60;;;;;;5001480;28;20060;-90
2023/06/03 08:25:32;;;;;;;3.22;0.20;;;33.80;30.50;;;;;;4972125;28;20050;-92
2023/06/03 08:28:01;;;;;;;1.88;0.13;;;34.60;35.20;;;;;;4992444;28;20387;-88
2023/06/03 08:30:55;;;;;;;1.73;0.30;;;34.90;34.70;;;;;;4982242;28;20493;-87
2023/06/03 08:33:38;;;;;;;3.03;0.25;;;34.70;30.20;;;;;;4978295;28;20852;-90
2023/06/03 08:36:36;;;;;;;2.92;0.20;;;34.30;33.70;;;;;;5005190;28;20506;-90
2023/06/03 08:39:11;;;;;;;1.52;0.20;;;34.80;32.00;;;;;;5004447;28;20064;-89
2023/06/03 08:41:54;;;;;;;1.30;0.20;;;36.70;33.00;;;;;;4975282;28;20477;-89
2023/06/03 08:45:00;;;;;;;0.93;0.10;;;34.50;32.20;;;;;;4956897;28;20038;-88
2023/06/03 08:47:54;;;;;;;1.73;0.30;;;34.50;29.80;;;;;;4934336;28;20054;-88
2023/06/03 08:50:28;;;;;;;1.05;0.17;;;34.00;30.10;;;;;;4962858;28;20085;-88
2023/06/03 08:52:54;;;;;;;;;;;33.90;31.20;;;;;;4952279;28;20396;-88
2023/06/03 08:55:21;;;;;;;2.53;0.10;;;34.60;31.70;;;;;;4955259;28;19918;-89
2023/06/03 08:58:05;;;;;;;1.25;0.20;;;34.00;30.80;;;;;;4951884;28;20068;-93
2023/06/03 09:00:55;;;;;;;2.53;0.20;;;31.20;28.70;;;;;;4951827;28;20054;-88
2023/06/03 09:03:22;;;;;;;1.67;0.20;;;32.20;29.80;;;;;;4944203;28;20054;-94
2023/06/03 09:05:52;;;;;;;2.33;0.25;;;30.70;31.40;;;;;;4947535;28;20038;-93
2023/06/03 09:08:23;;;;;;;2.65;0.30;;;28.10;32.90;;;;;;4941922;28;20046;-93
2023/06/03 09:10:56;;;;;;;1.23;0.20;;;26.80;32.60;;;;;;4948843;28;20046;-88
2023/06/03 09:13:22;;;;;;;1.38;0.10;;;19.90;33.30;;;;;;4955473;28;20455;-87
2023/06/03 09:15:58;;;;;;;2.60;0.40;;;24.30;37.50;;;;;;4943637;28;20034;-95
2023/06/03 09:18:27;;;;;;;1.33;0.15;;;23.50;38.20;;;;;;4981432;28;20038;-93
2023/06/03 09:20:53;;;;;;;1.42;0.30;;;22.10;39.40;;;;;;4953627;28;20095;-93
2023/06/03 09:23:25;;;;;;;4.50;0.43;;;21.40;41.60;;;;;;4958463;28;20513;-93
2023/06/03 09:25:58;;;;;;;2.03;0.20;;;21.20;41.90;;;;;;4949742;28;20096;-89
2023/06/03 09:28:24;;;;;;;1.52;0.20;;;;;;;;;;4974530;28;20049;-89
2023/06/03 09:30:53;;;;;;;1.27;0.20;;;21.80;39.80;;;;;;4963253;28;20052;-92
2023/06/03 09:33:20;;;;;;;1.08;0.20;;;23.70;40.50;;;;;;4951137;28;20038;-88
2023/06/03 09:36:15;;;;;;;1.00;0.25;;;24.80;37.50;;;;;;4946823;28;20068;-89
2023/06/03 09:39:05;;;;;;;1.58;0.25;;;22.60;37.30;;;;;;4948247;28;20050;-90
2023/06/03 09:41:47;;;;;;;1.92;0.20;;;26.40;38.80;;;;;;4948319;28;20086;-87
2023/06/03 09:44:14;;;;;;;2.70;0.30;;;24.30;35.80;;;;;;4962231;28;20046;-91
2023/06/03 09:46:40;;;;;;;4.57;0.22;;;28.20;36.20;;;;;;4965792;28;20479;-88
2023/06/03 09:49:16;;;;;;;2.15;0.10;;;29.30;37.80;;;;;;4961343;28;20101;-94
2023/06/03 09:51:50;;;;;;;3.03;0.20;;;29.10;33.80;;;;;;4944498;28;20047;-87
2023/06/03 09:54:18;;;;;;;1.10;0.30;;;29.40;33.30;;;;;;4972593;28;20042;-87
2023/06/03 09:56:45;;;;;;;0.82;0.10;;;29.90;33.90;;;;;;4971681;28;20128;-87
2023/06/03 09:59:21;;;;;;;1.65;0.20;;;30.40;33.00;;;;;;4958291;28;20054;-90
2023/06/03 10:01:51;;;;;;;2.63;0.22;;;30.70;32.20;;;;;;4938590;28;20096;-88
2023/06/03 10:04:24;;;;;;;3.65;0.30;;;30.50;33.00;;;;;;4965953;28;20061;-89
2023/06/03 10:07:08;;;;;;;2.10;0.20;;;32.40;33.30;;;;;;4958043;28;20042;-90
2023/06/03 10:09:34;;;;;;;2.60;0.13;;;30.30;31.80;;;;;;4942919;28;20049;-90
2023/06/03 10:12:07;;;;;;;3.00;0.30;;;30.10;33.00;;;;;;4967906;28;20054;-89
2023/06/03 10:14:43;;;;;;;2.55;0.28;;;29.90;32.80;;;;;;4951278;28;20039;-90
2023/06/03 10:17:10;;;;;;;1.45;0.30;;;30.50;35.50;;;;;;4968674;28;20149;-89
2023/06/03 10:19:39;;;;;;;4.18;0.28;;;30.30;31.30;;;;;;4942047;28;20030;-87
2023/06/03 10:22:06;;;;;;;1.45;0.20;;;29.00;31.60;;;;;;4950342;28;20542;-91
2023/06/03 10:24:35;;;;;;;2.50;0.20;;;30.40;32.40;;;;;;4941007;28;20046;-90
2023/06/03 10:27:02;;;;;;;2.92;0.20;;;30.40;32.80;;;;;;4942076;28;20043;-88
2023/06/03 10:29:36;;;;;;;1.70;0.20;;;30.60;32.80;;;;;;4954687;28;20030;-89
2023/06/03 10:32:12;;;;;;;1.75;0.20;;;31.00;35.40;;;;;;4942138;28;20050;-90
2023/06/03 10:34:44;;;;;;;1.95;0.32;;;31.10;33.30;;;;;;4955750;28;20099;-87
2023/06/03 10:37:12;;;;;;;6.82;1.40;;;31.20;32.40;;;;;;4976176;28;20390;-92
2023/06/03 10:39:41;;;;;;;2.10;0.30;;;31.00;32.90;;;;;;4956907;28;20478;-88
2023/06/03 10:42:11;;;;;;;3.30;1.10;;;30.60;32.40;;;;;;4962708;28;20459;-88
2023/06/03 10:44:37;;;;;;;4.45;0.30;;;30.30;31.80;;;;;;4963295;28;20492;-87
2023/06/03 10:47:21;;;;;;;1.30;0.20;;;29.10;31.10;;;;;;4967212;28;20046;-87
2023/06/03 10:49:55;;;;;;;1.77;0.28;;;28.80;32.20;;;;;;4988684;28;20156;-89
2023/06/03 10:52:49;;;;;;;2.88;0.30;;;27.30;34.20;;;;;;4979193;28;20522;-90
2023/06/03 10:55:55;;;;;;;0.88;0.30;;;25.60;37.70;;;;;;4970548;28;20037;-87
2023/06/03 10:58:25;;;;;;;1.30;0.20;;;24.60;40.10;;;;;;4985717;28;20042;-90
2023/06/03 11:01:07;;;;;;;1.60;0.10;;;22.30;37.50;;;;;;4960969;28;20048;-89
2023/06/03 11:04:25;;;;;;;1.92;0.20;;;23.70;39.80;;;;;;4978678;28;20061;-89
2023/06/03 11:06:54;;;;;;;2.53;0.20;;;22.60;40.50;;;;;;4989143;28;20251;-89
2023/06/03 11:09:40;;;;;;;3.85;0.32;;;21.20;41.20;;;;;;4975289;28;20170;-88
2023/06/03 11:12:13;;;;;;;;;;;22.80;41.40;;;;;;4976936;28;20048;-86
2023/06/03 11:14:52;;;;;;;1.95;0.40;;;22.90;43.90;;;;;;4988138;28;19933;-88
2023/06/03 11:17:23;;;;;;;3.40;0.20;;;21.80;42.30;;;;;;4975590;28;20046;-88
2023/06/03 11:19:55;;;;;;;2.78;0.20;;;21.70;42.30;;;;;;4961604;28;20208;-90
2023/06/03 11:22:47;;;;;;;3.50;0.40;;;21.30;46.10;;;;;;4962783;28;20152;-86
2023/06/03 11:25:32;;;;;;;1.98;0.20;;;21.40;43.80;;;;;;4963890;28;20091;-88
2023/06/03 11:28:29;;;;;;;1.00;0.28;;;21.30;42.60;;;;;;4977181;28;20261;-89
2023/06/03 11:30:56;;;;;;;1.20;0.28;;;;;;;;;;4986461;28;20046;-88
2023/06/03 11:33:30;;;;;;;0.60;0.20;;;20.80;44.40;;;;;;4982146;28;20041;-89
2023/06/03 11:36:18;;;;;;;1.50;0.22;;;19.00;40.60;;;;;;4982836;28;20140;-87
2023/06/03 11:39:02;;;;;;;1.77;0.25;;;20.60;45.70;;;;;;4963082;28;20042;-88
2023/06/03 11:42:03;;;;;;;3.83;0.25;;;20.40;44.90;;;;;;4967149;28;20046;-88
2023/06/03 11:44:30;;;;;;;1.35;0.20;;;21.20;41.80;;;;;;4966288;28;20045;-89
2023/06/03 11:46:56;;;;;;;1.70;0.20;;;;;;;;;;4969192;28;20050;-89
2023/06/03 11:49:22;;;;;;;1.73;0.20;;;20.60;42.40;;;;;;4975768;28;20074;-87
2023/06/03 11:51:59;;;;;;;3.03;0.20;;;20.70;43.00;;;;;;4962448;28;20056;-92
2023/06/03 11:54:26;;;;;;;2.03;0.30;;;;;;;;;;4968779;28;20572;-87
2023/06/03 11:56:54;;;;;;;1.30;0.20;;;;;;;;;;4985828;28;20041;-90
2023/06/03 11:59:41;;;;;;;1.60;0.20;;;20.60;46.30;;;;;;4981866;28;20053;-90
2023/06/03 12:02:08;;;;;;;2.05;0.20;;;;;;;;;;4978950;28;20468;-87
2023/06/03 12:04:37;;;;;;;3.53;0.47;;;20.70;42.50;;;;;;4988443;28;20049;-87
2023/06/03 12:07:15;;;;;;;1.13;0.20;;;18.70;41.80;;;;;;5002087;28;20403;-86
2023/06/03 12:09:41;;;;;;;2.90;0.20;;;;;;;;;;4978100;28;20073;-87
2023/06/03 12:12:08;;;;;;;1.45;0.20;;;20.60;43.40;;;;;;4977692;28;20136;-89
2023/06/03 12:14:38;;;;;;;2.67;0.50;;;20.70;43.00;;;;;;4961680;28;20102;-87
2023/06/03 12:17:09;;;;;;;2.42;0.30;;;20.60;44.20;;;;;;4969343;28;20065;-88
2023/06/03 12:19:45;;;;;;;3.63;0.30;;;20.70;42.30;;;;;;4984731;28;20099;-92
2023/06/03 12:22:12;;;;;;;1.20;0.20;;;23.20;43.20;;;;;;4964361;28;20081;-87
2023/06/03 12:24:42;;;;;;;2.95;0.20;;;20.50;43.30;;;;;;4982946;28;20051;-88
2023/06/03 12:27:15;;;;;;;1.13;0.20;;;20.80;47.40;;;;;;4966705;28;20056;-88
2023/06/03 12:29:47;;;;;;;1.27;0.32;;;20.50;44.90;;;;;;4981377;28;20065;-86
2023/06/03 12:32:14;;;;;;;0.85;0.20;;;20.50;44.20;;;;;;4976150;28;20067;-88
2023/06/03 12:34:41;;;;;;;1.45;0.35;;;20.60;43.90;;;;;;4978873;28;20033;-89
2023/06/03 12:37:08;;;;;;;2.30;0.22;;;20.40;44.80;;;;;;4974578;28;20571;-88
2023/06/03 12:39:48;;;;;;;1.05;0.28;;;20.00;47.30;;;;;;4981540;28;21002;-87
2023/06/03 12:42:19;;;;;;;1.80;0.20;;;20.60;47.60;;;;;;4979373;28;21202;-88
2023/06/03 12:44:47;;;;;;;2.73;0.20;;;;;;;;;;4962303;28;20283;-87
2023/06/03 12:47:16;;;;;;;2.92;0.30;;;20.50;44.20;;;;;;4987236;28;20054;-86
2023/06/03 12:49:43;;;;;;;2.78;0.40;;;20.50;44.60;;;;;;4991791;28;20057;-87
2023/06/03 12:52:15;;;;;;;2.83;0.13;;;20.60;43.80;;;;;;4991798;28;20114;-86
2023/06/03 12:54:47;;;;;;;2.72;0.35;;;20.70;44.40;;;;;;4981208;28;20050;-89
2023/06/03 12:57:14;;;;;;;0.88;0.20;;;;;;;;;;4973201;28;20038;-89
2023/06/03 13:00:40;;;;;;;1.85;0.50;;;20.80;46.80;;;;;;4985256;28;20038;-88
2023/06/03 13:03:07;;;;;;;1.90;0.30;;;;;;;;;;4915952;29;20059;-93
2023/06/03 13:05:53;;;;;;;2.72;0.30;;;20.90;48.10;;;;;;4926257;28;20046;-90
2023/06/03 13:08:26;;;;;;;2.05;0.38;;;20.90;48.10;;;;;;4989011;28;20100;-90
2023/06/03 13:11:24;;;;;;;0.63;0.20;;;20.70;44.10;;;;;;4978504;28;20048;-92
2023/06/03 13:13:54;;;;;;;1.77;0.20;;;;;;;;;;4989461;28;20050;-90
2023/06/03 13:16:26;;;;;;;1.60;0.20;;;20.70;44.20;;;;;;4979976;28;20034;-96
2023/06/03 13:19:02;;;;;;;4.35;0.45;;;20.30;47.50;;;;;;4978233;28;20038;-94
2023/06/03 13:21:31;;;;;;;1.33;0.55;;;21.50;47.50;;;;;;4988751;28;20045;-94
2023/06/03 13:24:00;;;;;;;1.15;0.30;;;;;;;;;;4991396;28;20046;-90
2023/06/03 13:26:32;;;;;;;1.17;0.30;;;20.70;48.00;;;;;;4987975;28;20333;-86
2023/06/03 13:29:08;;;;;;;1.13;0.43;;;20.70;48.40;;;;;;4975334;28;20049;-92
2023/06/03 13:31:35;;;;;;;3.10;0.25;;;;;;;;;;4984269;28;20132;-90
2023/06/03 13:34:04;;;;;;;1.65;0.63;;;;;;;;;;4989380;28;20223;-89
2023/06/03 13:36:33;;;;;;;0.80;0.20;;;20.60;43.90;;;;;;4988138;28;20053;-92
2023/06/03 13:39:03;;;;;;;1.77;0.40;;;18.10;45.30;;;;;;4969364;28;20053;-89
2023/06/03 13:41:33;;;;;;;1.92;0.28;;;20.60;43.80;;;;;;4976812;28;20125;-89
2023/06/03 13:44:17;;;;;;;1.73;0.20;;;20.30;47.50;;;;;;4945203;28;20272;-88
2023/06/03 13:46:44;;;;;;;2.53;0.50;;;20.40;47.40;;;;;;4956079;28;20073;-86
2023/06/03 13:56:19;;;;;;;0.90;0.20;;;20.70;48.10;;;;;;4941784;28;20062;-90
2023/06/03 13:58:49;;;;;;;1.70;0.20;;;;;;;;;;4952527;28;20121;-88